KBEH

Southwest Michigan Regional Airport

Benton Harbor, Michigan, USA
METAR KBEH 241253Z AUTO 10007KT 10SM CLR 13/11 A3012 RMK AO2 SLP201 T01330111
Observed Flight Rules
Sep-24 @ 12:53 UTC (44 minutes ago) Visual Flight Rules
Wind Visibility Clouds
100° at 7 knots 10 miles
  • Clear skies
Temperatures Readings
Current 13°C / 55°F
Dewpoint 11°C / 52°F
Humidity 88%
Altimeter 30.12" Hg
Pressure 1020.1 hPa
Elevation 191
METAR KBEH 241253Z AUTO 10007KT 10SM CLR 13/11 A3012 RMK AO2 SLP201 T01330111
Observed Flight Rules
Sep-24 @ 12:53 UTC
(44 minutes ago)
VFR
Wind Visibility
100° at 7 knots 10 miles
Clouds
  • Clear skies
Temperature Dewpoint
13°C / 55°F 11°C / 52°F
Humidity Altimeter Pressure
88% 30.12" Hg 1020.1 hPa